Time;durP1;ratioP1;P1;durP2;ratioP2;P2;SDS_P1;SDS_P2;PMS_P1;PMS_P2;Temp;Humidity;BMP_temperature;BMP_pressure;BME280_temperature;BME280_humidity;BME280_pressure;Samples;Min_cycle;Max_cycle;Signal;HPM_P1;HPM_P2
2023/05/30 00:01:30;;;;;;;3.28;0.80;;;18.00;95.80;;;;;;4875864;29;20077;-70
2023/05/30 00:04:35;;;;;;;3.45;1.52;;;18.00;95.90;;;;;;4911752;29;20094;-70
2023/05/30 00:07:04;;;;;;;2.25;1.48;;;17.80;96.30;;;;;;4904618;29;20044;-70
2023/05/30 00:09:48;;;;;;;6.07;1.50;;;17.80;96.70;;;;;;4911401;29;20579;-70
2023/05/30 00:12:27;;;;;;;4.18;1.70;;;17.80;96.60;;;;;;4905559;29;20104;-71
2023/05/30 00:15:16;;;;;;;3.15;1.23;;;17.80;96.90;;;;;;4914258;29;20039;-70
2023/05/30 00:18:00;;;;;;;2.85;1.17;;;17.70;97.20;;;;;;4887518;29;20100;-70
2023/05/30 00:20:30;;;;;;;3.33;1.45;;;17.60;97.50;;;;;;4905572;29;20044;-70
2023/05/30 00:23:15;;;;;;;5.57;1.33;;;17.50;97.70;;;;;;4906441;29;20063;-70
2023/05/30 00:29:24;;;;;;;8.23;2.05;;;17.30;98.70;;;;;;4889986;29;20979;-70
2023/05/30 00:31:49;;;;;;;6.40;1.95;;;17.50;98.70;;;;;;4916584;29;20050;-70
2023/05/30 00:35:00;;;;;;;5.03;1.38;;;17.50;98.50;;;;;;4972409;28;20031;-70
2023/05/30 00:37:26;;;;;;;9.07;1.30;;;17.40;98.70;;;;;;4888120;29;20040;-71
2023/05/30 00:40:08;;;;;;;2.05;1.10;;;17.30;98.70;;;;;;4889280;29;20407;-71
2023/05/30 00:42:54;;;;;;;3.67;1.50;;;17.30;98.60;;;;;;4954395;28;20034;-70
2023/05/30 00:45:21;;;;;;;4.00;1.30;;;17.20;98.70;;;;;;4964101;28;20026;-71
2023/05/30 00:47:50;;;;;;;2.30;1.23;;;17.10;99.20;;;;;;4980588;28;20035;-70
2023/05/30 00:50:18;;;;;;;3.17;1.38;;;17.00;99.40;;;;;;4972061;28;20438;-70
2023/05/30 00:52:47;;;;;;;5.10;1.02;;;16.90;99.70;;;;;;4953125;28;20039;-70
2023/05/30 00:55:29;;;;;;;2.45;1.20;;;16.80;99.90;;;;;;4962205;28;20082;-70
2023/05/30 00:57:55;;;;;;;8.10;1.80;;;16.80;99.90;;;;;;4964453;28;20043;-70
2023/05/30 01:00:23;;;;;;;3.55;1.17;;;16.80;99.90;;;;;;4972383;28;20027;-71
2023/05/30 01:03:00;;;;;;;7.93;1.50;;;16.70;99.90;;;;;;4965245;28;20066;-71
2023/05/30 01:06:20;;;;;;;4.93;1.45;;;16.70;99.90;;;;;;4965689;28;20031;-70
2023/05/30 01:09:37;;;;;;;4.18;1.48;;;16.60;99.90;;;;;;4896778;28;20127;-70
2023/05/30 01:12:59;;;;;;;2.92;1.42;;;16.60;99.90;;;;;;4944966;28;20042;-70
2023/05/30 01:16:16;;;;;;;3.75;1.17;;;16.50;99.90;;;;;;4943046;28;20039;-70
2023/05/30 01:19:52;;;;;;;4.03;1.17;;;16.40;99.90;;;;;;4956576;28;20379;-70
2023/05/30 01:27:54;;;;;;;3.13;1.42;;;16.30;99.90;;;;;;4866306;29;20084;-71
2023/05/30 01:30:30;;;;;;;2.10;1.17;;;16.20;99.90;;;;;;4833999;28;20195;-70
2023/05/30 01:33:08;;;;;;;2.38;1.05;;;16.30;99.90;;;;;;4971151;28;20029;-70
2023/05/30 01:35:34;;;;;;;2.60;0.95;;;16.20;99.90;;;;;;4969748;28;20034;-71
2023/05/30 01:38:41;;;;;;;3.50;1.23;;;16.20;99.90;;;;;;4963601;28;20031;-71
2023/05/30 01:41:56;;;;;;;5.70;1.33;;;16.00;99.90;;;;;;4976896;23;20086;-63
2023/05/30 01:48:30;;;;;;;3.63;1.15;;;16.10;99.90;;;;;;4949785;28;20050;-64
2023/05/30 01:51:28;;;;;;;1.63;0.75;;;16.10;99.90;;;;;;4982182;28;20050;-64
2023/05/30 01:54:24;;;;;;;4.57;1.00;;;15.90;99.90;;;;;;4981217;28;20129;-65
2023/05/30 01:57:00;;;;;;;2.47;1.13;;;15.90;99.90;;;;;;4951985;28;20500;-64
2023/05/30 01:59:34;;;;;;;2.83;1.25;;;15.90;99.90;;;;;;4958390;28;20042;-64
2023/05/30 02:02:08;;;;;;;4.45;1.17;;;15.80;99.90;;;;;;4953579;28;20090;-64
2023/05/30 02:05:08;;;;;;;5.57;1.48;;;15.80;99.90;;;;;;4969171;28;20092;-63
2023/05/30 02:07:39;;;;;;;2.65;0.98;;;15.80;99.90;;;;;;4980584;28;20042;-63
2023/05/30 02:10:29;;;;;;;2.83;1.60;;;15.70;99.90;;;;;;4983453;28;20048;-64
2023/05/30 02:13:52;;;;;;;1.95;0.98;;;15.70;99.90;;;;;;4977221;28;20116;-64
2023/05/30 02:16:18;;;;;;;4.05;1.00;;;15.60;99.90;;;;;;4947829;28;20459;-64
2023/05/30 02:21:37;;;;;;;3.97;1.20;;;15.50;99.90;;;;;;4910702;29;20047;-64
2023/05/30 02:24:12;;;;;;;3.35;1.35;;;15.40;99.90;;;;;;4911357;29;20065;-64
2023/05/30 02:26:43;;;;;;;4.97;1.05;;;15.30;99.90;;;;;;4932487;29;20410;-64
2023/05/30 02:29:53;;;;;;;2.35;1.35;;;15.20;99.90;;;;;;4946576;28;20044;-64
2023/05/30 02:32:19;;;;;;;4.30;1.25;;;15.20;99.90;;;;;;4929709;28;20570;-64
2023/05/30 02:34:44;;;;;;;4.60;1.40;;;15.20;99.90;;;;;;4948558;28;20126;-64
2023/05/30 02:38:25;;;;;;;3.92;0.93;;;15.20;99.90;;;;;;4944722;28;20122;-64
2023/05/30 02:41:13;;;;;;;2.95;0.88;;;15.20;99.90;;;;;;4878283;28;20210;-64
2023/05/30 02:43:41;;;;;;;6.63;1.73;;;15.10;99.90;;;;;;4946274;28;20177;-64
2023/05/30 02:46:13;;;;;;;4.32;1.45;;;15.00;99.90;;;;;;4948851;28;20047;-64
2023/05/30 02:48:54;;;;;;;4.47;1.33;;;15.00;99.90;;;;;;4948139;28;20043;-64
2023/05/30 02:51:49;;;;;;;4.40;1.55;;;15.00;99.90;;;;;;4945252;28;20098;-64
2023/05/30 02:54:23;;;;;;;3.75;1.15;;;15.00;99.90;;;;;;4952471;28;20038;-64
2023/05/30 02:57:08;;;;;;;3.88;1.42;;;14.90;99.90;;;;;;4986572;28;20030;-64
2023/05/30 02:59:34;;;;;;;4.18;1.27;;;14.90;99.90;;;;;;4984454;28;20031;-64
2023/05/30 03:02:26;;;;;;;4.45;1.10;;;14.90;99.90;;;;;;4977247;28;20509;-63
2023/05/30 03:05:32;;;;;;;4.55;1.42;;;14.90;99.90;;;;;;4910549;29;20080;-64
2023/05/30 03:08:40;;;;;;;4.47;0.93;;;14.80;99.90;;;;;;4907631;29;20606;-63
2023/05/30 03:14:59;;;;;;;4.65;1.33;;;14.80;99.90;;;;;;4911240;29;20052;-64
2023/05/30 03:17:38;;;;;;;4.50;1.45;;;14.70;99.90;;;;;;4913112;29;20046;-64
2023/05/30 03:20:06;;;;;;;3.72;1.27;;;14.70;99.90;;;;;;4914923;29;20896;-65
2023/05/30 03:22:35;;;;;;;1.38;0.68;;;14.70;99.90;;;;;;4899236;29;20552;-65
2023/05/30 03:25:36;;;;;;;2.58;0.90;;;14.70;99.90;;;;;;4914754;29;20043;-64
2023/05/30 03:28:30;;;;;;;2.58;1.02;;;14.70;99.90;;;;;;4803815;29;20482;-64
2023/05/30 03:31:04;;;;;;;4.22;1.20;;;14.60;99.90;;;;;;4911028;29;20072;-64
2023/05/30 03:33:48;;;;;;;1.55;0.88;;;14.60;99.90;;;;;;4912907;29;20583;-64
2023/05/30 03:39:19;;;;;;;2.97;1.00;;;14.40;99.90;;;;;;4913287;29;20043;-65
2023/05/30 03:41:45;;;;;;;12.10;1.38;;;14.40;99.90;;;;;;4932266;28;20042;-65
2023/05/30 03:44:21;;;;;;;3.78;1.35;;;14.30;99.90;;;;;;4970887;28;20034;-65
2023/05/30 03:46:49;;;;;;;2.70;0.90;;;14.30;99.90;;;;;;4967904;28;20517;-65
2023/05/30 03:49:33;;;;;;;4.07;1.80;;;14.30;99.90;;;;;;4935919;28;20050;-65
2023/05/30 03:52:27;;;;;;;6.20;1.52;;;14.30;99.90;;;;;;4973533;28;20054;-65
2023/05/30 03:58:57;;;;;;;2.28;1.17;;;14.30;99.90;;;;;;4865894;29;20052;-50
2023/05/30 04:01:52;;;;;;;6.78;1.08;;;14.30;99.90;;;;;;4950731;29;20184;-51
2023/05/30 04:07:41;;;;;;;7.93;1.67;;;14.40;99.90;;;;;;5018605;23;20152;-59
2023/05/30 04:10:07;;;;;;;4.97;0.73;;;14.50;99.90;;;;;;4980472;28;20058;-58
2023/05/30 04:12:33;;;;;;;4.70;1.65;;;14.40;99.90;;;;;;4985394;28;20027;-59
2023/05/30 04:14:59;;;;;;;1.88;0.70;;;14.50;99.90;;;;;;4981374;28;20105;-59
2023/05/30 04:17:24;;;;;;;3.85;1.13;;;14.50;99.90;;;;;;4980212;28;20042;-56
2023/05/30 04:19:51;;;;;;;9.10;1.15;;;14.50;99.90;;;;;;4974992;28;20034;-60
2023/05/30 04:22:16;;;;;;;2.20;0.95;;;14.50;99.90;;;;;;4971817;28;20042;-58
2023/05/30 04:24:45;;;;;;;7.75;1.58;;;14.50;99.80;;;;;;4979160;28;20035;-60
2023/05/30 04:27:13;;;;;;;5.45;1.13;;;14.50;99.70;;;;;;4984300;28;20031;-59
2023/05/30 04:29:42;;;;;;;2.35;1.58;;;14.60;99.50;;;;;;4978826;28;20037;-57
2023/05/30 04:32:09;;;;;;;1.90;0.98;;;14.60;99.40;;;;;;4983857;28;20105;-60
2023/05/30 04:34:34;;;;;;;1.10;0.77;;;14.60;99.50;;;;;;4979110;28;20031;-59
2023/05/30 04:37:01;;;;;;;1.60;0.75;;;14.60;99.50;;;;;;4980327;28;20038;-57
2023/05/30 04:39:27;;;;;;;5.07;1.50;;;14.70;99.20;;;;;;4968712;28;20517;-60
2023/05/30 04:41:54;;;;;;;2.13;1.00;;;14.70;99.30;;;;;;4981730;28;20026;-58
2023/05/30 04:44:20;;;;;;;20.52;6.90;;;14.70;99.30;;;;;;4976917;28;20034;-60
2023/05/30 04:46:46;;;;;;;3.95;1.70;;;14.70;99.50;;;;;;4942176;28;20502;-57
2023/05/30 04:49:15;;;;;;;2.67;0.93;;;14.70;99.50;;;;;;4967487;28;20054;-60
2023/05/30 04:51:41;;;;;;;4.53;0.98;;;14.70;99.30;;;;;;4969033;28;20030;-59
2023/05/30 04:54:07;;;;;;;1.25;0.80;;;14.70;99.20;;;;;;4972340;28;20034;-57
2023/05/30 04:56:33;;;;;;;4.75;1.20;;;14.70;99.40;;;;;;4967271;28;20034;-56
2023/05/30 04:58:59;;;;;;;6.50;1.13;;;14.80;99.50;;;;;;4955331;28;20502;-60
2023/05/30 05:01:25;;;;;;;2.17;1.23;;;14.90;99.30;;;;;;4968081;28;20038;-60
2023/05/30 05:03:51;;;;;;;4.38;1.08;;;14.90;99.40;;;;;;4972481;28;20035;-59
2023/05/30 05:06:18;;;;;;;2.50;1.15;;;15.00;98.70;;;;;;4966009;28;20443;-57
2023/05/30 05:08:43;;;;;;;6.25;1.15;;;15.00;98.90;;;;;;4972783;28;20062;-66
2023/05/30 05:11:09;;;;;;;2.65;1.15;;;15.00;98.80;;;;;;4965406;28;20113;-60
2023/05/30 05:13:35;;;;;;;2.55;1.17;;;14.90;98.90;;;;;;4972645;28;20031;-59
2023/05/30 05:16:03;;;;;;;8.30;1.55;;;14.90;98.90;;;;;;4968367;28;20045;-60
2023/05/30 05:18:29;;;;;;;7.85;1.95;;;14.70;99.10;;;;;;4970723;28;20486;-59
2023/05/30 05:20:55;;;;;;;2.53;1.00;;;14.80;99.40;;;;;;4969398;28;20042;-56
2023/05/30 05:23:22;;;;;;;4.47;1.75;;;14.90;99.60;;;;;;4969811;28;20062;-58
2023/05/30 05:25:48;;;;;;;3.28;0.85;;;15.00;99.10;;;;;;4969688;28;20221;-59
2023/05/30 05:28:15;;;;;;;5.78;1.42;;;15.10;99.30;;;;;;4969844;28;20620;-59
2023/05/30 05:30:41;;;;;;;5.10;1.20;;;15.10;99.10;;;;;;4969971;28;20035;-60
2023/05/30 05:33:07;;;;;;;3.13;1.63;;;15.20;99.40;;;;;;4970745;28;20030;-59
2023/05/30 05:35:34;;;;;;;5.35;1.00;;;15.20;98.80;;;;;;4967457;28;20026;-67
2023/05/30 05:38:00;;;;;;;7.47;1.77;;;15.20;99.10;;;;;;4968330;28;20118;-68
2023/05/30 05:40:26;;;;;;;5.75;1.30;;;15.40;98.90;;;;;;4970016;28;20117;-68
2023/05/30 05:42:52;;;;;;;2.60;1.15;;;15.30;98.70;;;;;;4968447;28;20166;-66
2023/05/30 05:45:17;;;;;;;2.60;0.82;;;15.30;98.80;;;;;;4971115;28;20063;-66
2023/05/30 05:47:43;;;;;;;8.43;1.05;;;15.20;99.10;;;;;;4968886;28;20038;-65
2023/05/30 05:50:09;;;;;;;3.63;1.00;;;15.40;99.10;;;;;;4970878;28;20063;-66
2023/05/30 05:52:35;;;;;;;3.13;0.85;;;15.40;98.70;;;;;;4967697;28;20030;-65
2023/05/30 05:55:01;;;;;;;3.17;1.30;;;15.50;98.60;;;;;;4970989;28;20054;-66
2023/05/30 05:57:26;;;;;;;4.07;1.50;;;15.50;98.70;;;;;;4952994;28;20035;-66
2023/05/30 05:59:53;;;;;;;4.93;0.70;;;15.60;98.80;;;;;;4971111;28;20034;-66
2023/05/30 06:02:18;;;;;;;7.30;1.25;;;15.50;98.80;;;;;;4968940;28;20030;-66
2023/05/30 06:04:44;;;;;;;2.47;1.33;;;15.60;98.60;;;;;;4970610;28;20047;-68
2023/05/30 06:07:10;;;;;;;5.05;1.13;;;15.70;98.50;;;;;;4966267;28;20049;-68
2023/05/30 06:09:36;;;;;;;8.48;1.27;;;15.70;98.80;;;;;;4967834;28;20109;-67
2023/05/30 06:12:02;;;;;;;4.22;0.80;;;15.80;98.60;;;;;;4967296;28;20042;-66
2023/05/30 06:14:28;;;;;;;7.03;1.27;;;15.90;98.50;;;;;;4971098;28;20086;-66
2023/05/30 06:16:54;;;;;;;3.13;1.05;;;16.00;98.10;;;;;;4982113;28;20406;-67
2023/05/30 06:19:19;;;;;;;5.05;0.85;;;16.20;98.20;;;;;;4971877;28;20031;-68
2023/05/30 06:21:45;;;;;;;2.97;1.02;;;16.20;97.90;;;;;;4966585;28;20046;-68
2023/05/30 06:24:11;;;;;;;3.90;0.95;;;16.30;97.50;;;;;;4971767;28;20053;-68
2023/05/30 06:26:40;;;;;;;5.95;0.90;;;16.30;97.40;;;;;;4966231;28;20027;-68
2023/05/30 06:29:05;;;;;;;2.67;1.00;;;16.40;97.20;;;;;;4971606;28;20090;-68
2023/05/30 06:31:31;;;;;;;8.85;1.92;;;16.50;97.30;;;;;;4950210;28;20023;-68
2023/05/30 06:33:57;;;;;;;1.90;0.80;;;16.70;97.10;;;;;;4955874;28;20023;-66
2023/05/30 06:36:23;;;;;;;2.55;0.80;;;16.90;96.70;;;;;;4966280;28;20031;-67
2023/05/30 06:38:51;;;;;;;3.33;1.25;;;17.00;96.40;;;;;;4971404;28;20034;-67
2023/05/30 06:41:17;;;;;;;1.92;0.55;;;17.10;96.00;;;;;;4952452;28;20045;-67
2023/05/30 06:43:42;;;;;;;5.15;1.23;;;17.10;95.60;;;;;;4955346;28;20089;-67
2023/05/30 06:46:08;;;;;;;5.70;2.15;;;17.20;96.10;;;;;;4966447;28;20041;-67
2023/05/30 06:48:34;;;;;;;5.35;1.00;;;17.30;96.00;;;;;;4985961;28;20057;-65
2023/05/30 06:50:59;;;;;;;8.95;1.20;;;17.40;96.00;;;;;;4958589;28;20042;-67
2023/05/30 06:53:25;;;;;;;7.50;1.25;;;17.70;95.60;;;;;;4991130;28;20397;-66
2023/05/30 06:55:51;;;;;;;3.78;1.10;;;17.60;95.30;;;;;;4973988;28;20031;-66
2023/05/30 06:58:17;;;;;;;3.67;1.13;;;17.80;95.10;;;;;;4975336;28;20035;-66
2023/05/30 07:00:44;;;;;;;4.72;1.48;;;17.80;94.90;;;;;;4965136;28;20101;-66
2023/05/30 07:03:10;;;;;;;2.17;0.70;;;17.90;94.70;;;;;;4975318;28;20162;-66
2023/05/30 07:05:36;;;;;;;4.88;0.75;;;17.90;94.50;;;;;;4975107;28;20129;-66
2023/05/30 07:08:02;;;;;;;4.85;1.38;;;18.10;94.70;;;;;;4975345;28;20482;-66
2023/05/30 07:10:27;;;;;;;3.20;0.75;;;18.10;94.50;;;;;;4982448;28;20042;-66
2023/05/30 07:12:53;;;;;;;2.08;0.82;;;18.10;93.90;;;;;;4974028;28;20126;-67
2023/05/30 07:15:19;;;;;;;9.40;2.00;;;18.20;94.00;;;;;;4976574;28;20031;-67
2023/05/30 07:17:45;;;;;;;4.00;0.65;;;18.40;93.60;;;;;;4973410;28;20041;-67
2023/05/30 07:20:11;;;;;;;4.78;1.00;;;18.50;93.50;;;;;;4976821;28;20030;-67
2023/05/30 07:22:38;;;;;;;2.38;1.35;;;18.60;93.00;;;;;;4973126;28;20023;-66
2023/05/30 07:25:05;;;;;;;3.17;1.00;;;18.70;93.20;;;;;;4983062;28;20042;-67
2023/05/30 07:27:31;;;;;;;1.70;1.33;;;18.70;93.10;;;;;;4971859;28;20034;-66
2023/05/30 07:29:57;;;;;;;3.92;1.42;;;18.80;92.80;;;;;;4976993;28;20031;-67
2023/05/30 07:32:23;;;;;;;1.50;0.73;;;18.90;92.60;;;;;;4973408;28;20135;-67
2023/05/30 07:34:48;;;;;;;4.13;1.00;;;19.00;92.60;;;;;;4976514;28;20635;-67
2023/05/30 07:37:14;;;;;;;2.45;0.90;;;19.10;91.70;;;;;;4987859;28;20039;-67
2023/05/30 07:39:40;;;;;;;2.80;1.02;;;19.20;92.00;;;;;;4943688;28;20027;-67
2023/05/30 07:42:07;;;;;;;2.20;0.90;;;19.30;91.00;;;;;;4973239;28;21159;-67
2023/05/30 07:44:33;;;;;;;2.22;1.00;;;19.40;90.90;;;;;;4975862;28;20030;-68
2023/05/30 07:46:58;;;;;;;9.48;1.10;;;19.30;90.50;;;;;;4973083;28;20035;-67
2023/05/30 07:49:25;;;;;;;1.88;0.68;;;19.50;90.90;;;;;;4977088;28;20042;-66
2023/05/30 07:51:50;;;;;;;4.78;1.45;;;19.60;90.40;;;;;;4972713;28;20030;-66
2023/05/30 07:54:16;;;;;;;4.15;1.48;;;19.20;90.50;;;;;;4977272;28;20285;-66
2023/05/30 07:56:42;;;;;;;1.77;0.50;;;19.20;90.40;;;;;;4971599;28;20026;-67
2023/05/30 07:59:08;;;;;;;3.65;0.80;;;19.60;90.40;;;;;;4977163;28;20039;-66
2023/05/30 08:01:33;;;;;;;5.78;1.17;;;19.90;89.90;;;;;;4955220;28;20042;-67
2023/05/30 08:03:59;;;;;;;6.85;1.00;;;20.00;89.40;;;;;;4972675;28;20118;-67
2023/05/30 08:06:25;;;;;;;3.97;1.13;;;19.90;88.90;;;;;;4967691;28;20050;-67
2023/05/30 08:08:51;;;;;;;6.82;1.45;;;19.80;89.80;;;;;;4972378;28;20437;-67
2023/05/30 08:11:17;;;;;;;4.13;0.98;;;19.80;89.10;;;;;;4954433;28;20027;-67
2023/05/30 08:13:47;;;;;;;4.20;1.00;;;19.90;89.10;;;;;;4960806;28;20114;-66
2023/05/30 08:16:14;;;;;;;4.03;1.10;;;19.90;88.50;;;;;;4957415;28;20043;-67
2023/05/30 08:18:41;;;;;;;2.80;1.05;;;20.00;89.10;;;;;;4975926;28;20035;-67
2023/05/30 08:21:07;;;;;;;3.40;1.20;;;20.10;88.40;;;;;;4957900;28;20114;-67
2023/05/30 08:23:33;;;;;;;1.95;0.80;;;20.10;88.20;;;;;;4966609;28;20382;-67
2023/05/30 08:25:59;;;;;;;5.15;0.93;;;20.00;89.30;;;;;;4970552;28;20438;-67
2023/05/30 08:28:25;;;;;;;7.07;1.35;;;20.10;88.50;;;;;;4988453;28;20042;-67
2023/05/30 08:30:51;;;;;;;5.60;0.85;;;20.40;88.80;;;;;;4960505;28;20043;-67
2023/05/30 08:33:18;;;;;;;2.10;0.90;;;20.30;88.80;;;;;;4953354;28;20038;-67
2023/05/30 08:35:44;;;;;;;3.35;0.75;;;20.50;87.90;;;;;;4969956;28;20519;-67
2023/05/30 08:38:11;;;;;;;5.13;1.20;;;20.50;88.00;;;;;;4971065;28;20042;-67
2023/05/30 08:40:45;;;;;;;3.83;1.17;;;20.60;87.00;;;;;;4985616;28;20045;-67
2023/05/30 08:43:11;;;;;;;13.15;1.17;;;20.60;87.40;;;;;;4972147;28;20081;-67
2023/05/30 08:45:38;;;;;;;2.05;0.90;;;20.60;87.50;;;;;;4954708;28;20031;-67
2023/05/30 08:48:10;;;;;;;3.30;0.88;;;20.40;87.80;;;;;;4972307;28;20494;-67
2023/05/30 08:50:36;;;;;;;3.97;1.60;;;20.70;87.30;;;;;;4968481;28;20035;-67
2023/05/30 08:53:09;;;;;;;3.47;0.90;;;20.70;87.70;;;;;;4988278;28;20031;-67
2023/05/30 08:55:51;;;;;;;4.00;1.08;;;20.90;87.50;;;;;;4970814;28;20571;-67
2023/05/30 08:58:25;;;;;;;3.92;1.15;;;20.80;87.10;;;;;;4970115;28;20026;-70
2023/05/30 09:00:52;;;;;;;5.80;1.25;;;21.00;86.60;;;;;;4954396;28;20034;-68
2023/05/30 09:03:20;;;;;;;4.70;1.20;;;21.10;86.40;;;;;;4988329;28;20451;-69
2023/05/30 09:05:46;;;;;;;3.58;1.10;;;21.10;86.40;;;;;;4955284;28;20122;-67
2023/05/30 09:08:13;;;;;;;2.30;1.30;;;21.20;86.30;;;;;;4970111;28;20039;-69
2023/05/30 09:10:48;;;;;;;2.40;0.90;;;21.00;86.50;;;;;;4953717;28;20129;-69
2023/05/30 09:13:15;;;;;;;3.38;0.88;;;21.30;86.60;;;;;;4971816;28;20029;-69
2023/05/30 09:15:41;;;;;;;5.80;1.23;;;21.10;87.00;;;;;;4968848;28;20027;-69
2023/05/30 09:18:06;;;;;;;3.83;1.65;;;21.20;86.60;;;;;;4970406;28;20490;-69
2023/05/30 09:20:32;;;;;;;3.05;1.10;;;21.40;86.60;;;;;;4970657;28;20034;-69
2023/05/30 09:23:01;;;;;;;1.35;0.82;;;21.40;86.60;;;;;;4969614;28;20456;-69
2023/05/30 09:25:44;;;;;;;4.85;1.25;;;21.70;85.00;;;;;;4971100;28;20076;-69
2023/05/30 09:28:12;;;;;;;3.45;1.08;;;21.60;85.20;;;;;;4971566;28;20042;-69
2023/05/30 09:31:04;;;;;;;3.35;0.80;;;21.90;84.60;;;;;;4967817;28;20035;-69
2023/05/30 09:33:53;;;;;;;3.45;1.10;;;21.70;86.10;;;;;;4951807;28;20039;-69
2023/05/30 09:36:24;;;;;;;3.03;1.25;;;21.80;84.20;;;;;;4957507;28;20411;-68
2023/05/30 09:39:04;;;;;;;2.35;0.93;;;21.80;84.90;;;;;;4965819;28;20027;-70
2023/05/30 09:41:29;;;;;;;4.40;1.17;;;21.90;86.00;;;;;;4981407;28;20031;-69
2023/05/30 09:43:57;;;;;;;2.75;1.15;;;22.00;85.10;;;;;;4971391;28;20110;-68
2023/05/30 09:46:30;;;;;;;4.57;1.00;;;22.40;83.20;;;;;;4948622;28;20643;-69
2023/05/30 09:48:57;;;;;;;3.47;1.27;;;22.40;82.00;;;;;;4957715;28;20035;-69
2023/05/30 09:51:29;;;;;;;2.78;1.17;;;22.10;82.60;;;;;;4951739;28;20126;-68
2023/05/30 09:54:06;;;;;;;1.92;0.70;;;22.30;82.80;;;;;;4957920;28;20504;-69
2023/05/30 09:56:36;;;;;;;2.72;1.20;;;22.30;82.70;;;;;;4965713;28;20394;-69
2023/05/30 09:59:08;;;;;;;4.78;1.02;;;22.50;82.50;;;;;;4971981;28;20038;-69
2023/05/30 10:01:45;;;;;;;6.57;1.63;;;22.60;82.10;;;;;;4954693;28;20031;-68
2023/05/30 10:04:19;;;;;;;5.57;0.90;;;22.80;81.70;;;;;;4974204;28;20371;-68
2023/05/30 10:06:47;;;;;;;2.22;0.90;;;22.90;81.70;;;;;;4948983;28;20057;-68
2023/05/30 10:09:14;;;;;;;2.88;1.25;;;22.80;80.90;;;;;;4971575;28;20031;-68
2023/05/30 10:11:43;;;;;;;2.35;1.05;;;22.80;80.40;;;;;;4950084;28;20107;-69
2023/05/30 10:14:10;;;;;;;7.60;1.10;;;23.10;80.50;;;;;;4974966;28;20106;-68
2023/05/30 10:16:47;;;;;;;5.22;1.55;;;23.40;80.20;;;;;;4948869;28;20122;-68
2023/05/30 10:19:18;;;;;;;3.53;1.25;;;23.50;77.50;;;;;;4971700;28;20047;-69
2023/05/30 10:21:44;;;;;;;3.85;0.77;;;23.40;77.50;;;;;;4951336;28;20038;-68
2023/05/30 10:24:15;;;;;;;2.35;1.33;;;23.70;78.20;;;;;;4958937;28;20045;-69
2023/05/30 10:26:55;;;;;;;4.05;1.25;;;23.80;76.10;;;;;;4956435;28;20045;-69
2023/05/30 10:29:24;;;;;;;5.43;1.30;;;23.90;76.20;;;;;;4974910;28;20061;-68
2023/05/30 10:31:53;;;;;;;5.85;1.67;;;23.90;76.60;;;;;;4961473;28;20491;-68
2023/05/30 10:34:27;;;;;;;6.07;1.38;;;24.10;76.30;;;;;;4975541;28;20582;-68
2023/05/30 10:36:53;;;;;;;3.83;1.17;;;24.00;75.10;;;;;;4975760;28;20035;-68
2023/05/30 10:40:06;;;;;;;6.90;1.40;;;23.80;75.20;;;;;;4971222;28;20490;-68
2023/05/30 10:43:08;;;;;;;3.55;1.63;;;23.80;76.00;;;;;;4966603;28;20031;-69
2023/05/30 10:45:43;;;;;;;4.00;1.35;;;24.10;75.80;;;;;;4967780;28;20046;-69
2023/05/30 10:48:27;;;;;;;6.95;1.98;;;23.90;75.30;;;;;;4970313;28;20061;-70
2023/05/30 10:50:59;;;;;;;5.88;1.50;;;24.10;77.10;;;;;;4962878;28;20043;-69
2023/05/30 10:53:26;;;;;;;4.60;1.77;;;24.30;76.30;;;;;;4984327;28;20023;-69
2023/05/30 10:55:52;;;;;;;7.55;1.77;;;24.20;74.90;;;;;;4957542;28;20058;-68
2023/05/30 10:58:37;;;;;;;1.30;0.75;;;24.30;75.20;;;;;;4968775;28;20479;-68
2023/05/30 11:01:24;;;;;;;9.23;1.55;;;24.30;75.00;;;;;;4954769;28;20043;-68
2023/05/30 11:04:04;;;;;;;3.13;1.42;;;24.00;74.40;;;;;;4969335;28;20046;-69
2023/05/30 11:06:45;;;;;;;4.13;1.13;;;24.50;74.90;;;;;;4966855;28;20093;-69
2023/05/30 11:09:16;;;;;;;4.80;1.30;;;24.30;74.10;;;;;;4970212;28;20072;-69
2023/05/30 11:11:54;;;;;;;9.95;1.63;;;24.40;77.30;;;;;;4966968;28;20034;-69
2023/05/30 11:14:29;;;;;;;2.53;1.20;;;24.50;75.10;;;;;;4953382;28;20026;-69
2023/05/30 11:16:55;;;;;;;3.40;1.20;;;25.00;73.50;;;;;;4947798;28;20026;-69
2023/05/30 11:19:44;;;;;;;3.88;1.10;;;25.20;72.20;;;;;;4970698;28;20093;-69
2023/05/30 11:22:13;;;;;;;3.33;1.13;;;25.60;70.80;;;;;;4966017;28;20089;-69
2023/05/30 11:24:40;;;;;;;5.53;1.27;;;25.50;71.70;;;;;;4956258;28;20042;-70
2023/05/30 11:27:12;;;;;;;4.78;1.17;;;25.70;69.10;;;;;;4953014;28;20483;-69
2023/05/30 11:29:55;;;;;;;4.35;1.20;;;25.60;69.80;;;;;;4956388;28;20042;-69
2023/05/30 11:32:23;;;;;;;5.90;1.00;;;25.50;68.30;;;;;;4964966;28;20034;-69
2023/05/30 11:35:06;;;;;;;2.60;1.00;;;25.30;68.20;;;;;;4985309;28;20027;-70
2023/05/30 11:37:33;;;;;;;4.32;1.05;;;25.30;68.40;;;;;;4966676;28;20026;-69
2023/05/30 11:39:59;;;;;;;3.50;0.88;;;25.60;68.00;;;;;;4973383;28;20386;-70
2023/05/30 11:42:29;;;;;;;2.78;0.98;;;26.00;67.20;;;;;;4950295;28;20035;-69
2023/05/30 11:44:55;;;;;;;5.30;1.33;;;26.20;66.40;;;;;;4968872;28;20022;-70
2023/05/30 11:47:21;;;;;;;6.10;1.30;;;25.40;66.90;;;;;;4969599;28;20041;-70
2023/05/30 11:49:48;;;;;;;4.88;1.10;;;25.80;65.90;;;;;;4974331;28;20034;-69
2023/05/30 11:52:14;;;;;;;2.95;1.17;;;25.70;65.40;;;;;;4969189;28;20514;-69
2023/05/30 11:54:41;;;;;;;3.67;0.95;;;25.80;64.50;;;;;;4974007;28;20019;-69
2023/05/30 11:57:08;;;;;;;4.07;0.90;;;25.70;64.50;;;;;;4970316;28;20030;-69
2023/05/30 11:59:34;;;;;;;2.97;1.20;;;25.60;65.00;;;;;;4972410;28;20049;-70
2023/05/30 12:02:01;;;;;;;4.82;1.20;;;25.70;63.80;;;;;;4957915;28;20030;-68
2023/05/30 12:04:31;;;;;;;1.20;0.63;;;25.60;63.80;;;;;;4971820;28;20459;-69
2023/05/30 12:07:03;;;;;;;2.38;0.70;;;25.30;63.40;;;;;;4955423;28;20614;-69
2023/05/30 12:09:35;;;;;;;3.10;0.93;;;25.70;62.30;;;;;;4970005;28;20038;-69
2023/05/30 12:12:01;;;;;;;2.85;0.82;;;25.80;62.00;;;;;;4960864;28;20041;-68
2023/05/30 12:14:50;;;;;;;2.08;1.20;;;25.80;62.80;;;;;;4970563;28;20023;-68
2023/05/30 12:17:21;;;;;;;3.05;0.85;;;26.00;61.30;;;;;;4959246;28;20117;-70
2023/05/30 12:20:00;;;;;;;2.78;1.13;;;25.80;61.00;;;;;;4956432;28;20117;-69
2023/05/30 12:22:30;;;;;;;5.07;1.85;;;25.90;60.50;;;;;;4969403;28;20066;-68
2023/05/30 12:24:56;;;;;;;4.45;1.20;;;26.20;60.50;;;;;;4945576;29;20500;-68
2023/05/30 12:27:27;;;;;;;2.33;0.77;;;26.40;60.40;;;;;;4952918;28;20035;-67
2023/05/30 12:29:53;;;;;;;3.63;1.20;;;26.60;58.90;;;;;;4971722;28;20482;-68
2023/05/30 12:32:25;;;;;;;5.95;1.27;;;26.90;59.20;;;;;;4969512;28;20035;-68
2023/05/30 12:34:53;;;;;;;4.75;1.05;;;26.80;59.10;;;;;;4952911;28;20122;-69
2023/05/30 12:37:19;;;;;;;2.35;1.33;;;27.20;58.80;;;;;;4939375;28;20133;-69
2023/05/30 12:39:51;;;;;;;3.22;0.90;;;27.00;56.90;;;;;;4953344;28;20510;-69
2023/05/30 12:42:28;;;;;;;1.67;0.82;;;27.20;56.20;;;;;;4954869;28;20027;-69
2023/05/30 12:44:55;;;;;;;1.63;0.68;;;27.40;56.00;;;;;;4972584;28;20109;-69
2023/05/30 12:47:23;;;;;;;3.17;0.90;;;27.30;56.50;;;;;;4969322;28;20041;-68
2023/05/30 12:49:49;;;;;;;2.75;0.85;;;27.00;56.10;;;;;;4939986;29;20344;-69
2023/05/30 12:52:19;;;;;;;2.63;1.45;;;26.80;56.50;;;;;;4966370;28;20550;-69
2023/05/30 12:54:46;;;;;;;4.25;1.23;;;27.10;55.50;;;;;;4971914;28;20118;-68
2023/05/30 12:57:12;;;;;;;3.70;0.98;;;27.60;55.80;;;;;;4953689;28;20050;-67
2023/05/30 12:59:39;;;;;;;3.83;1.02;;;27.70;56.00;;;;;;4972228;28;20128;-68
2023/05/30 13:02:07;;;;;;;2.75;1.08;;;27.90;55.40;;;;;;4969067;28;20085;-68
2023/05/30 13:04:32;;;;;;;4.30;1.00;;;27.90;55.70;;;;;;4970297;28;20109;-67
2023/05/30 13:06:58;;;;;;;5.45;1.40;;;28.10;54.20;;;;;;4968843;28;20161;-68
2023/05/30 13:09:24;;;;;;;3.15;1.35;;;28.20;54.20;;;;;;4987143;28;20482;-69
2023/05/30 13:11:50;;;;;;;1.05;0.70;;;28.20;53.10;;;;;;4949815;28;20022;-68
2023/05/30 13:14:17;;;;;;;2.47;0.68;;;27.50;54.40;;;;;;4971185;28;20502;-68
2023/05/30 13:16:43;;;;;;;2.13;0.90;;;27.80;54.00;;;;;;4968188;28;20030;-69
2023/05/30 13:19:10;;;;;;;5.13;1.60;;;27.90;54.20;;;;;;4971295;28;20038;-68
2023/05/30 13:21:40;;;;;;;4.03;1.60;;;28.00;53.80;;;;;;4967271;28;20038;-67
2023/05/30 13:24:06;;;;;;;;;;;27.90;53.80;;;;;;4972781;28;20034;-67
2023/05/30 13:26:34;;;;;;;3.20;1.20;;;28.10;53.20;;;;;;4966755;28;19917;-68
2023/05/30 13:29:04;;;;;;;2.58;0.85;;;28.50;52.10;;;;;;4986265;28;20490;-67
2023/05/30 13:31:29;;;;;;;2.07;0.87;;;28.60;51.80;;;;;;4949920;28;20102;-67
2023/05/30 13:33:56;;;;;;;2.75;0.70;;;28.80;52.10;;;;;;4971815;28;20524;-68
2023/05/30 13:36:24;;;;;;;4.50;0.77;;;28.30;52.20;;;;;;4967036;28;20039;-68
2023/05/30 13:38:50;;;;;;;5.15;1.45;;;28.70;52.70;;;;;;4954709;28;20035;-67
2023/05/30 13:41:16;;;;;;;5.10;1.30;;;30.10;51.50;;;;;;4969231;28;20026;-67
2023/05/30 13:43:42;;;;;;;4.07;0.95;;;30.90;49.70;;;;;;4971241;28;20041;-68
2023/05/30 13:46:07;;;;;;;2.63;0.70;;;29.20;50.60;;;;;;4966812;28;20035;-68